This is the latest recevied weather packets stored in our database for station/object IA5FYI-13. If no packets are shown the sender has not sent any weather packets the latest 10 day(s).
| Time | Temp. | Humidity | Pressure | Rain* | Wind** | Luminosity | Snow |
|---|---|---|---|---|---|---|---|
| 1777692621 | 11.11° C | 60% | 1023 hPa | 0 mm | - | - | - |
| 1777692308 | 11.11° C | 60% | 1023 hPa | 0 mm | - | - | - |
| 1777692012 | 11.11° C | 58% | 1023 hPa | 0 mm | - | - | - |
| 1777691712 | 11.11° C | 57% | 1023 hPa | 0 mm | - | - | - |
| 1777691412 | 11.11° C | 57% | 1023 hPa | 0 mm | - | - | - |
| 1777691108 | 11.11° C | 58% | 1023 hPa | 0 mm | - | - | - |
| 1777690832 | 12.22° C | 56% | 1023 hPa | 0 mm | - | - | - |
| 1777690509 | 12.78° C | 53% | 1023.4 hPa | 0 mm | - | - | - |
| 1777690213 | 13.89° C | 45% | 1023 hPa | 0 mm | - | - | - |
| 1777689912 | 13.89° C | 47% | 1023.4 hPa | 0 mm | - | - | - |
| 1777689612 | 12.78° C | 50% | 1023.4 hPa | 0 mm | - | - | - |
| 1777689308 | 13.89° C | 48% | 1023.4 hPa | 0 mm | - | - | - |
| 1777689023 | 15° C | 41% | 1023.4 hPa | 0 mm | - | - | - |
| 1777688709 | 13.89° C | 44% | 1023.4 hPa | 0 mm | - | - | - |
| 1777688412 | 13.89° C | 44% | 1023.4 hPa | 0 mm | - | - | - |
| 1777688111 | 12.22° C | 56% | 1023 hPa | 0 mm | - | - | - |
| 1777687509 | 12.22° C | 52% | 1023.4 hPa | 0 mm | - | - | - |
| 1777673712 | 17.22° C | 33% | 1023 hPa | 0 mm | - | - | - |
| 1777673108 | 17.22° C | 36% | 1023 hPa | 0 mm | - | - | - |
| 1777672833 | 17.22° C | 33% | 1023 hPa | 0 mm | - | - | - |
| 1777671612 | 17.22° C | 34% | 1023 hPa | 0 mm | - | - | - |
| 1777671309 | 17.22° C | 33% | 1023 hPa | 0 mm | - | - | - |
| 1777671022 | 17.22° C | 34% | 1022.7 hPa | 0 mm | - | - | - |
| 1777670412 | 17.78° C | 31% | 1023 hPa | 0 mm | - | - | - |
| 1777670113 | 17.78° C | 30% | 1023 hPa | 0 mm | - | - | - |
* Rain latest hour (hover to see other rain measurements)
** Current wind speed in m/s (hover to see current wind gust speed)